Terminal Aerodrome Forecast
Issued by NWS

Home | Current Version | Previous Version | Text Only | Print | Product List | Glossary Off
Versions: 1 2 3 4 5 6 7 8 9 10 11 12 13 14 15 16 17

000
FTUS41 KCLE 030232 AAC
TAFFDY
TAF AMD
KFDY 030232Z 0303/0324 04006KT P6SM BKN012 OVC060
      TEMPO 0303/0307 SCT012
     FM031800 34004KT P6SM SCT012 BKN060=

USA.gov is the U.S. government's official web portal to all federal, state and local government web resources and services.